createdAt,value
2019-04-23T00:02:44.448Z,12.40
2019-04-23T00:05:16.985Z,19.30
2019-04-23T00:08:11.351Z,15.10
2019-04-23T00:12:47.862Z,17.60
2019-04-23T00:15:26.653Z,12.80
2019-04-23T00:18:12.560Z,12.98
2019-04-23T00:20:22.012Z,10.98
2019-04-23T00:30:44.106Z,14.73
2019-04-23T00:33:15.646Z,16.00
2019-04-23T00:35:41.748Z,12.28
2019-04-23T00:43:15.014Z,15.10
2019-04-23T00:45:44.607Z,10.98
2019-04-23T00:48:19.592Z,12.55
2019-04-23T00:50:52.171Z,15.63
2019-04-23T00:53:17.503Z,14.53
2019-04-23T01:01:03.909Z,10.30
2019-04-23T01:03:21.509Z,12.40
2019-04-23T01:05:53.956Z,12.33
2019-04-23T01:08:26.355Z,9.80
2019-04-23T01:16:06.036Z,8.65
2019-04-23T01:18:51.443Z,10.68
2019-04-23T01:21:05.615Z,9.45
2019-04-23T01:23:48.198Z,10.25
2019-04-23T01:26:33.000Z,10.10
2019-04-23T01:29:06.774Z,8.70
2019-04-23T01:31:44.575Z,11.25
2019-04-23T01:34:13.462Z,11.45
2019-04-23T01:36:35.612Z,8.23
2019-04-23T01:39:24.394Z,9.33
2019-04-23T01:41:50.097Z,8.93
2019-04-23T01:44:27.845Z,9.35
2019-04-23T01:46:49.267Z,9.88
2019-04-23T01:49:21.915Z,11.12
2019-04-23T01:51:55.729Z,11.90
2019-04-23T01:54:24.187Z,9.60
2019-04-23T01:56:49.469Z,9.38
2019-04-23T01:59:25.806Z,9.78
2019-04-23T02:02:01.004Z,10.30
2019-04-23T02:04:28.525Z,8.25
2019-04-23T02:07:02.255Z,12.20
2019-04-23T02:09:40.213Z,9.03
2019-04-23T02:12:07.956Z,9.53
2019-04-23T02:14:37.575Z,9.93
2019-04-23T02:17:12.037Z,12.73
2019-04-23T02:19:42.037Z,11.00
2019-04-23T02:22:25.018Z,9.00
2019-04-23T02:24:55.945Z,13.65
2019-04-23T02:27:19.044Z,11.18
2019-04-23T02:32:39.871Z,11.45
2019-04-23T02:37:45.722Z,9.70
2019-04-23T02:40:11.178Z,8.87
2019-04-23T02:45:07.163Z,9.20
2019-04-23T02:50:21.697Z,8.88
2019-04-23T02:52:38.140Z,8.03
2019-04-23T02:55:21.936Z,6.53
2019-04-23T03:00:21.029Z,7.10
2019-04-23T03:05:26.418Z,7.87
2019-04-23T03:07:47.469Z,5.72
2019-04-23T03:10:16.120Z,7.28
2019-04-23T03:13:11.919Z,5.10
2019-04-23T03:15:50.460Z,7.60
2019-04-23T03:18:42.204Z,8.35
2019-04-23T03:21:00.451Z,8.95
2019-04-23T03:23:32.078Z,4.92
2019-04-23T03:26:08.520Z,5.22
2019-04-23T03:38:48.520Z,5.40
2019-04-23T03:41:15.007Z,6.67
2019-04-23T03:43:41.145Z,6.25
2019-04-23T03:46:23.649Z,5.00
2019-04-23T03:48:54.902Z,4.15
2019-04-23T03:51:13.913Z,8.15
2019-04-23T03:53:52.196Z,5.72
2019-04-23T03:56:25.480Z,5.80
2019-04-23T04:01:22.584Z,5.53
2019-04-23T04:06:33.753Z,2.52
2019-04-23T04:09:03.039Z,3.00
2019-04-23T04:11:19.539Z,5.58
2019-04-23T04:14:10.167Z,5.50
2019-04-23T04:16:28.251Z,4.95
2019-04-23T04:24:24.870Z,3.72
2019-04-23T04:29:11.705Z,2.03
2019-04-23T04:31:44.741Z,3.80
2019-04-23T04:34:24.773Z,3.05
2019-04-23T04:37:18.393Z,3.62
2019-04-23T04:39:03.351Z,3.80
2019-04-23T04:41:52.445Z,5.17
2019-04-23T04:44:36.490Z,2.67
2019-04-23T04:46:47.730Z,2.72
2019-04-23T04:49:23.815Z,1.90
2019-04-23T04:54:14.040Z,1.40
2019-04-23T04:59:13.967Z,0.93
2019-04-23T05:07:04.220Z,0.88
2019-04-23T05:09:31.817Z,0.70
2019-04-23T05:12:01.639Z,1.30
2019-04-23T05:14:35.520Z,2.27
2019-04-23T05:16:57.341Z,0.90
2019-04-23T05:19:36.890Z,0.82
2019-04-23T05:24:28.759Z,1.20
2019-04-23T05:26:58.452Z,2.00
2019-04-23T05:29:34.163Z,2.33
2019-04-23T05:31:58.102Z,3.47
2019-04-23T05:34:38.552Z,1.17
2019-04-23T05:37:06.152Z,2.95
2019-04-23T05:39:38.125Z,5.08
2019-04-23T05:42:04.402Z,2.95
2019-04-23T05:44:38.541Z,1.32
2019-04-23T05:47:17.433Z,2.37
2019-04-23T05:49:41.377Z,2.10
2019-04-23T05:52:29.871Z,4.10
2019-04-23T05:54:49.696Z,2.70
2019-04-23T05:57:14.253Z,1.52
2019-04-23T05:59:48.488Z,0.70
2019-04-23T06:02:19.723Z,0.85
2019-04-23T06:04:50.683Z,1.40
2019-04-23T06:12:28.443Z,0.95
2019-04-23T06:17:26.792Z,0.55
2019-04-23T06:20:04.222Z,1.23
2019-04-23T06:25:30.824Z,0.42
2019-04-23T06:27:32.299Z,4.30
2019-04-23T06:30:01.659Z,0.93
2019-04-23T06:32:51.449Z,3.77
2019-04-23T06:35:09.054Z,6.25
2019-04-23T06:40:10.139Z,1.75
2019-04-23T06:42:42.886Z,1.77
2019-04-23T06:45:14.546Z,0.50
2019-04-23T06:47:56.019Z,3.40
2019-04-23T06:50:14.800Z,2.92
2019-04-23T06:52:50.383Z,1.60
2019-04-23T06:55:25.398Z,0.98
2019-04-23T06:57:55.565Z,1.22
2019-04-23T07:00:29.368Z,0.95
2019-04-23T07:03:00.908Z,2.60
2019-04-23T07:05:30.518Z,1.30
2019-04-23T07:08:04.425Z,2.17
2019-04-23T07:10:39.043Z,0.88
2019-04-23T07:13:02.672Z,1.57
2019-04-23T07:15:48.293Z,1.57
2019-04-23T07:18:08.626Z,1.70
2019-04-23T07:20:40.326Z,3.92
2019-04-23T07:23:14.117Z,1.40
2019-04-23T07:25:44.271Z,0.90
2019-04-23T07:28:18.030Z,0.40
2019-04-23T07:30:52.143Z,0.72
2019-04-23T07:33:18.703Z,2.98
2019-04-23T07:35:48.860Z,2.17
2019-04-23T07:38:40.906Z,1.50
2019-04-23T07:41:24.917Z,1.25
2019-04-23T07:43:59.105Z,0.90
2019-04-23T07:49:02.629Z,1.35
2019-04-23T07:51:36.333Z,0.20
2019-04-23T07:54:11.330Z,0.10
2019-04-23T07:56:45.954Z,0.93
2019-04-23T07:59:15.963Z,2.87
2019-04-23T08:01:44.777Z,0.90
2019-04-23T08:04:08.520Z,0.40
2019-04-23T08:06:46.181Z,1.60
2019-04-23T08:09:17.354Z,1.45
2019-04-23T08:12:04.551Z,1.37
2019-04-23T08:14:33.235Z,0.60
2019-04-23T08:16:45.043Z,2.47
2019-04-23T08:19:25.574Z,2.45
2019-04-23T08:22:03.992Z,3.30
2019-04-23T08:24:38.465Z,3.02
2019-04-23T08:27:04.176Z,0.72
2019-04-23T08:29:30.543Z,1.37
2019-04-23T08:32:12.219Z,2.22
2019-04-23T08:34:43.045Z,1.05
2019-04-23T08:39:43.539Z,2.52
2019-04-23T08:44:56.536Z,1.05
2019-04-23T08:47:50.747Z,1.22
2019-04-23T08:50:27.430Z,1.12
2019-04-23T08:52:43.144Z,2.45
2019-04-23T08:55:16.923Z,3.72
2019-04-23T08:57:36.641Z,2.00
2019-04-23T09:00:18.635Z,1.17
2019-04-23T09:02:47.656Z,3.00
2019-04-23T09:05:28.268Z,1.12
2019-04-23T09:07:55.284Z,1.30
2019-04-23T09:10:19.695Z,1.62
2019-04-23T09:12:53.905Z,1.90
2019-04-23T09:15:30.127Z,1.05
2019-04-23T09:17:57.874Z,2.10
2019-04-23T09:20:27.692Z,0.85
2019-04-23T09:22:55.148Z,1.00
2019-04-23T09:25:37.066Z,1.30
2019-04-23T09:28:02.859Z,1.12
2019-04-23T09:30:34.505Z,0.93
2019-04-23T09:33:17.210Z,1.30
2019-04-23T09:35:59.258Z,1.25
2019-04-23T09:38:34.447Z,3.22
2019-04-23T09:43:58.949Z,6.33
2019-04-23T09:46:29.044Z,2.25
2019-04-23T09:51:34.254Z,1.12
2019-04-23T09:54:04.309Z,0.95
2019-04-23T09:56:37.673Z,1.42
2019-04-23T09:59:09.114Z,0.93
2019-04-23T10:01:42.500Z,1.12
2019-04-23T10:03:53.344Z,1.60
2019-04-23T10:06:18.228Z,0.90
2019-04-23T10:08:48.963Z,4.05
2019-04-23T10:11:13.836Z,1.07
2019-04-23T10:13:45.084Z,1.32
2019-04-23T10:16:17.248Z,3.90
2019-04-23T10:18:47.003Z,1.52
2019-04-23T10:21:17.480Z,3.02
2019-04-23T10:23:49.611Z,2.75
2019-04-23T10:26:19.845Z,4.70
2019-04-23T10:28:54.674Z,1.25
2019-04-23T10:31:26.924Z,4.15
2019-04-23T10:33:57.960Z,4.00
2019-04-23T10:36:29.974Z,1.17
2019-04-23T10:39:07.419Z,2.22
2019-04-23T10:41:35.184Z,1.30
2019-04-23T10:44:07.068Z,1.52
2019-04-23T10:47:08.542Z,2.10
2019-04-23T10:54:40.888Z,1.50
2019-04-23T10:59:43.234Z,2.47
2019-04-23T11:02:34.522Z,1.00
2019-04-23T11:04:57.796Z,0.95
2019-04-23T11:12:37.000Z,1.25
2019-04-23T11:15:09.153Z,4.05
2019-04-23T11:17:41.346Z,1.70
2019-04-23T11:20:14.902Z,2.12
2019-04-23T11:25:15.374Z,3.00
2019-04-23T11:27:45.205Z,2.08
2019-04-23T11:30:19.128Z,1.47
2019-04-23T11:35:31.194Z,2.70
2019-04-23T11:37:50.731Z,0.80
2019-04-23T11:40:15.637Z,0.72
2019-04-23T11:42:54.476Z,3.15
2019-04-23T11:45:26.043Z,3.27
2019-04-23T11:50:29.579Z,0.80
2019-04-23T11:55:32.879Z,0.95
2019-04-23T11:58:07.677Z,1.00
2019-04-23T12:00:33.684Z,0.75
2019-04-23T12:02:55.995Z,1.30
2019-04-23T12:08:26.766Z,1.15
2019-04-23T12:11:27.485Z,3.00
2019-04-23T12:13:30.236Z,3.15
2019-04-23T12:15:56.516Z,3.58
2019-04-23T12:18:34.401Z,4.87
2019-04-23T12:20:57.569Z,1.72
2019-04-23T12:23:40.558Z,5.03
2019-04-23T12:26:03.752Z,4.10
2019-04-23T12:28:40.223Z,2.00
2019-04-23T12:31:26.459Z,1.15
2019-04-23T12:33:44.802Z,0.70
2019-04-23T12:36:28.648Z,0.80
2019-04-23T12:38:56.754Z,0.53
2019-04-23T12:41:31.278Z,4.53
2019-04-23T12:44:00.925Z,0.88
2019-04-23T12:46:31.127Z,0.57
2019-04-23T12:49:07.385Z,0.55
2019-04-23T12:54:16.237Z,0.70
2019-04-23T12:56:48.108Z,0.30
2019-04-23T12:59:08.758Z,1.55
2019-04-23T13:01:45.036Z,1.67
2019-04-23T13:04:09.638Z,2.02
2019-04-23T13:06:38.406Z,0.65
2019-04-23T13:09:23.183Z,3.02
2019-04-23T13:11:45.148Z,0.42
2019-04-23T13:14:20.752Z,0.83
2019-04-23T13:16:53.923Z,0.70
2019-04-23T13:19:37.397Z,0.68
2019-04-23T13:21:57.109Z,2.17
2019-04-23T13:24:27.629Z,2.27
2019-04-23T13:26:56.048Z,4.40
2019-04-23T13:29:37.955Z,4.22
2019-04-23T13:32:00.941Z,4.58
2019-04-23T13:34:40.719Z,3.10
2019-04-23T13:37:11.300Z,1.35
2019-04-23T13:39:39.902Z,3.33
2019-04-23T13:42:19.705Z,2.00
2019-04-23T13:44:42.477Z,1.02
2019-04-23T13:47:21.720Z,2.02
2019-04-23T13:49:45.258Z,0.90
2019-04-23T13:52:46.473Z,2.85
2019-04-23T13:54:59.979Z,1.60
2019-04-23T13:57:49.697Z,3.20
2019-04-23T13:59:48.410Z,1.22
2019-04-23T14:02:34.482Z,2.05
2019-04-23T14:04:58.477Z,1.77
2019-04-23T14:07:46.676Z,1.87
2019-04-23T14:10:14.846Z,1.45
2019-04-23T14:12:41.773Z,2.80
2019-04-23T14:18:04.012Z,4.50
2019-04-23T14:20:17.392Z,1.02
2019-04-23T14:23:00.074Z,2.42
2019-04-23T14:25:12.349Z,0.93
2019-04-23T14:27:49.505Z,2.70
2019-04-23T14:30:21.774Z,1.98
2019-04-23T14:32:54.136Z,0.82
2019-04-23T14:35:25.482Z,1.10
2019-04-23T14:38:09.780Z,1.30
2019-04-23T14:41:03.535Z,0.70
2019-04-23T14:48:23.252Z,0.50
2019-04-23T14:51:11.404Z,0.50
2019-04-23T14:56:00.480Z,1.55
2019-04-23T15:01:22.229Z,2.92
2019-04-23T15:06:33.201Z,2.95
2019-04-23T15:08:54.771Z,2.05
2019-04-23T15:13:44.697Z,2.22
2019-04-23T15:16:28.332Z,1.25
2019-04-23T15:27:35.965Z,1.15
2019-04-23T15:28:37.423Z,1.65
2019-04-23T15:31:33.347Z,1.20
2019-04-23T15:34:08.364Z,4.28
2019-04-23T15:36:41.262Z,1.10
2019-04-23T15:39:12.329Z,0.60
2019-04-23T15:41:43.854Z,0.62
2019-04-23T15:44:12.297Z,2.83
2019-04-23T15:46:38.895Z,0.80
2019-04-23T15:49:14.838Z,1.22
2019-04-23T15:51:48.436Z,1.75
2019-04-23T15:54:13.586Z,0.53
2019-04-23T15:59:23.650Z,1.15
2019-04-23T16:01:44.184Z,2.17
2019-04-23T16:03:49.673Z,2.42
2019-04-23T16:06:23.422Z,0.90
2019-04-23T16:09:11.048Z,1.12
2019-04-23T16:11:48.028Z,5.10
2019-04-23T16:16:51.472Z,2.25
2019-04-23T16:19:43.936Z,1.95
2019-04-23T16:24:48.500Z,2.40
2019-04-23T16:27:11.142Z,0.60
2019-04-23T16:32:27.795Z,1.12
2019-04-23T16:34:50.122Z,1.40
2019-04-23T16:37:28.844Z,0.70
2019-04-23T16:40:01.618Z,0.42
2019-04-23T16:42:29.638Z,0.70
2019-04-23T16:45:10.977Z,0.80
2019-04-23T16:47:29.722Z,1.27
2019-04-23T16:50:05.065Z,2.70
2019-04-23T16:52:36.741Z,1.32
2019-04-23T16:55:07.491Z,5.97
2019-04-23T17:03:04.404Z,4.28
2019-04-23T17:05:19.549Z,0.82
2019-04-23T17:07:55.458Z,1.82
2019-04-23T17:10:25.865Z,3.27
2019-04-23T17:12:52.825Z,3.15
2019-04-23T17:15:21.177Z,3.72
2019-04-23T17:17:47.968Z,3.00
2019-04-23T17:20:25.816Z,6.37
2019-04-23T17:22:57.948Z,4.10
2019-04-23T17:25:28.446Z,3.30
2019-04-23T17:28:08.998Z,3.65
2019-04-23T17:33:15.370Z,6.10
2019-04-23T17:35:55.620Z,3.12
2019-04-23T17:38:42.476Z,4.62
2019-04-23T17:41:15.655Z,4.83
2019-04-23T17:43:51.008Z,3.55
2019-04-23T17:46:14.734Z,5.37
2019-04-23T17:48:52.350Z,8.70
2019-04-23T17:51:13.342Z,4.90
2019-04-23T17:56:33.909Z,6.92
2019-04-23T17:58:54.734Z,2.67
2019-04-23T18:01:35.790Z,2.92
2019-04-23T18:04:02.193Z,3.52
2019-04-23T18:06:42.861Z,5.03
2019-04-23T18:09:09.596Z,7.12
2019-04-23T18:19:10.045Z,4.90
2019-04-23T18:24:28.809Z,6.35
2019-04-23T18:27:05.376Z,3.25
2019-04-23T18:32:13.012Z,6.12
2019-04-23T18:34:51.706Z,6.35
2019-04-23T18:37:10.601Z,5.55
2019-04-23T18:39:43.673Z,3.58
2019-04-23T18:42:18.250Z,2.92
2019-04-23T18:44:42.172Z,2.67
2019-04-23T18:47:24.811Z,5.17
2019-04-23T18:49:45.445Z,3.58
2019-04-23T18:55:24.326Z,3.40
2019-04-23T18:57:53.407Z,4.08
2019-04-23T19:00:24.035Z,2.87
2019-04-23T19:05:45.688Z,5.03
2019-04-23T19:10:51.191Z,3.72
2019-04-23T19:15:52.971Z,6.30
2019-04-23T19:18:38.241Z,7.25
2019-04-23T19:26:02.179Z,3.12
2019-04-23T19:31:26.122Z,7.65
2019-04-23T19:34:21.321Z,6.87
2019-04-23T19:40:01.087Z,3.02
2019-04-23T19:42:36.776Z,3.65
2019-04-23T19:45:04.815Z,5.60
2019-04-23T19:47:45.862Z,5.12
2019-04-23T19:50:03.617Z,5.42
2019-04-23T19:52:59.551Z,3.80
2019-04-23T19:55:08.188Z,2.95
2019-04-23T19:57:42.533Z,2.47
2019-04-23T20:00:20.157Z,4.05
2019-04-23T20:05:24.722Z,3.25
2019-04-23T20:10:30.344Z,8.10
2019-04-23T20:12:54.644Z,3.20
2019-04-23T20:15:41.479Z,6.22
2019-04-23T20:18:26.905Z,6.92
2019-04-23T20:20:43.873Z,4.42
2019-04-23T20:23:38.375Z,2.98
2019-04-23T20:26:03.326Z,2.95
2019-04-23T20:28:24.302Z,6.80
2019-04-23T20:31:59.018Z,7.62
2019-04-23T20:33:57.831Z,3.83
2019-04-23T20:36:13.987Z,7.08
2019-04-23T20:43:49.216Z,7.20
2019-04-23T20:46:14.833Z,6.28
2019-04-23T20:51:25.880Z,3.62
2019-04-23T20:53:55.360Z,5.33
2019-04-23T20:56:30.191Z,4.60
2019-04-23T20:59:00.292Z,6.62
2019-04-23T21:01:38.633Z,6.83
2019-04-23T21:04:00.363Z,6.58
2019-04-23T21:06:41.530Z,5.67
2019-04-23T21:10:00.929Z,6.20
2019-04-23T21:11:58.849Z,6.87
2019-04-23T21:14:33.489Z,8.13
2019-04-23T21:16:40.870Z,7.67
2019-04-23T21:19:10.626Z,8.60
2019-04-23T21:21:57.880Z,8.05
2019-04-23T21:24:27.112Z,4.80
2019-04-23T21:26:59.898Z,6.47
2019-04-23T21:29:33.961Z,10.20
2019-04-23T21:32:10.716Z,6.08
2019-04-23T21:34:30.242Z,10.63
2019-04-23T21:37:04.394Z,9.03
2019-04-23T21:40:12.569Z,6.17
2019-04-23T21:45:02.666Z,10.70
2019-04-23T21:50:11.953Z,7.70
2019-04-23T21:52:34.372Z,15.30
2019-04-23T21:55:05.018Z,11.18
2019-04-23T21:57:50.041Z,9.40
2019-04-23T22:00:08.272Z,10.78
2019-04-23T22:02:45.566Z,10.03
2019-04-23T22:05:16.055Z,9.55
2019-04-23T22:07:51.252Z,7.60
2019-04-23T22:13:09.739Z,15.45
2019-04-23T22:23:03.811Z,12.50
2019-04-23T22:25:31.653Z,12.53
2019-04-23T22:28:02.835Z,12.93
2019-04-23T22:30:54.780Z,12.82
2019-04-23T22:33:10.066Z,13.48
2019-04-23T22:35:48.289Z,12.87
2019-04-23T22:38:15.831Z,12.45
2019-04-23T22:40:54.221Z,12.07
2019-04-23T22:43:39.535Z,11.68
2019-04-23T22:45:53.413Z,13.53
2019-04-23T22:48:18.406Z,8.88
2019-04-23T22:51:06.988Z,9.93
2019-04-23T22:53:33.216Z,14.60
2019-04-23T22:56:03.282Z,7.35
2019-04-23T22:58:41.589Z,13.55
2019-04-23T23:03:58.803Z,11.90
2019-04-23T23:06:29.645Z,9.95
2019-04-23T23:09:10.461Z,11.97
2019-04-23T23:11:22.793Z,8.43
2019-04-23T23:16:30.338Z,9.07
2019-04-23T23:22:13.553Z,16.62
2019-04-23T23:24:46.059Z,12.63
2019-04-23T23:27:23.707Z,9.75
2019-04-23T23:35:09.658Z,11.20
2019-04-23T23:37:28.399Z,12.85
2019-04-23T23:40:10.953Z,9.95
2019-04-23T23:42:34.384Z,9.50
2019-04-23T23:45:12.418Z,17.67
2019-04-23T23:47:52.265Z,10.80
2019-04-23T23:52:54.992Z,13.13
2019-04-23T23:55:19.105Z,10.18
2019-04-23T23:58:04.709Z,11.47
